sensor_id;sensor_type;location;lat;lon;timestamp;P1;durP1;ratioP1;P2;durP2;ratioP2
8113;SDS011;4099;52.684;9.918;2023-08-01T00:03:27;4.20;;;2.50;;
8113;SDS011;4099;52.684;9.918;2023-08-01T00:08:30;3.13;;;2.60;;
8113;SDS011;4099;52.684;9.918;2023-08-01T00:13:33;2.50;;;2.30;;
8113;SDS011;4099;52.684;9.918;2023-08-01T00:18:35;1.80;;;1.70;;
8113;SDS011;4099;52.684;9.918;2023-08-01T00:23:39;2.77;;;2.07;;
8113;SDS011;4099;52.684;9.918;2023-08-01T00:28:43;3.37;;;1.87;;
8113;SDS011;4099;52.684;9.918;2023-08-01T00:33:45;2.20;;;2.00;;
8113;SDS011;4099;52.684;9.918;2023-08-01T00:38:47;2.10;;;1.77;;
8113;SDS011;4099;52.684;9.918;2023-08-01T00:43:51;1.70;;;1.60;;
8113;SDS011;4099;52.684;9.918;2023-08-01T00:48:53;2.37;;;1.57;;
8113;SDS011;4099;52.684;9.918;2023-08-01T00:53:59;2.63;;;1.63;;
8113;SDS011;4099;52.684;9.918;2023-08-01T00:59:04;1.60;;;1.50;;
8113;SDS011;4099;52.684;9.918;2023-08-01T01:04:06;2.83;;;1.37;;
8113;SDS011;4099;52.684;9.918;2023-08-01T01:09:15;2.53;;;1.50;;
8113;SDS011;4099;52.684;9.918;2023-08-01T01:14:19;2.00;;;1.43;;
8113;SDS011;4099;52.684;9.918;2023-08-01T01:19:21;1.90;;;1.70;;
8113;SDS011;4099;52.684;9.918;2023-08-01T01:24:26;2.10;;;1.40;;
8113;SDS011;4099;52.684;9.918;2023-08-01T01:29:29;1.43;;;1.33;;
8113;SDS011;4099;52.684;9.918;2023-08-01T01:34:31;1.77;;;1.40;;
8113;SDS011;4099;52.684;9.918;2023-08-01T01:39:35;3.17;;;1.67;;
8113;SDS011;4099;52.684;9.918;2023-08-01T01:44:37;2.00;;;1.60;;
8113;SDS011;4099;52.684;9.918;2023-08-01T01:49:39;1.80;;;1.70;;
8113;SDS011;4099;52.684;9.918;2023-08-01T01:54:42;3.20;;;1.77;;
8113;SDS011;4099;52.684;9.918;2023-08-01T01:59:44;2.13;;;1.90;;
8113;SDS011;4099;52.684;9.918;2023-08-01T02:04:47;2.57;;;1.90;;
8113;SDS011;4099;52.684;9.918;2023-08-01T02:09:52;2.17;;;1.93;;
8113;SDS011;4099;52.684;9.918;2023-08-01T02:14:55;2.37;;;1.90;;
8113;SDS011;4099;52.684;9.918;2023-08-01T02:19:57;2.97;;;2.20;;
8113;SDS011;4099;52.684;9.918;2023-08-01T02:25:00;3.53;;;2.17;;
8113;SDS011;4099;52.684;9.918;2023-08-01T02:30:02;3.97;;;2.37;;
8113;SDS011;4099;52.684;9.918;2023-08-01T02:35:06;2.40;;;2.20;;
8113;SDS011;4099;52.684;9.918;2023-08-01T02:40:10;2.43;;;2.23;;
8113;SDS011;4099;52.684;9.918;2023-08-01T02:45:13;2.80;;;2.40;;
8113;SDS011;4099;52.684;9.918;2023-08-01T02:50:16;2.70;;;2.50;;
8113;SDS011;4099;52.684;9.918;2023-08-01T02:55:20;2.70;;;2.50;;
8113;SDS011;4099;52.684;9.918;2023-08-01T03:00:23;2.73;;;2.53;;
8113;SDS011;4099;52.684;9.918;2023-08-01T03:05:28;2.70;;;2.50;;
8113;SDS011;4099;52.684;9.918;2023-08-01T03:10:32;3.00;;;2.50;;
8113;SDS011;4099;52.684;9.918;2023-08-01T03:15:34;3.20;;;2.90;;
8113;SDS011;4099;52.684;9.918;2023-08-01T03:20:36;4.03;;;2.70;;
8113;SDS011;4099;52.684;9.918;2023-08-01T03:25:40;3.33;;;3.07;;
8113;SDS011;4099;52.684;9.918;2023-08-01T03:30:42;3.13;;;2.87;;
8113;SDS011;4099;52.684;9.918;2023-08-01T03:35:44;3.70;;;3.27;;
8113;SDS011;4099;52.684;9.918;2023-08-01T03:40:48;3.27;;;2.97;;
8113;SDS011;4099;52.684;9.918;2023-08-01T03:45:51;4.97;;;3.83;;
8113;SDS011;4099;52.684;9.918;2023-08-01T03:50:54;3.53;;;2.70;;
8113;SDS011;4099;52.684;9.918;2023-08-01T03:55:58;3.13;;;2.93;;
8113;SDS011;4099;52.684;9.918;2023-08-01T04:01:00;3.20;;;2.90;;
8113;SDS011;4099;52.684;9.918;2023-08-01T04:06:02;3.17;;;2.87;;
8113;SDS011;4099;52.684;9.918;2023-08-01T04:11:06;3.83;;;2.80;;
8113;SDS011;4099;52.684;9.918;2023-08-01T04:16:08;2.93;;;2.67;;
8113;SDS011;4099;52.684;9.918;2023-08-01T04:21:11;2.70;;;2.50;;
8113;SDS011;4099;52.684;9.918;2023-08-01T04:26:16;4.63;;;2.90;;
8113;SDS011;4099;52.684;9.918;2023-08-01T04:31:17;5.47;;;3.20;;
8113;SDS011;4099;52.684;9.918;2023-08-01T04:36:20;3.73;;;3.43;;
8113;SDS011;4099;52.684;9.918;2023-08-01T04:41:23;4.77;;;2.97;;
8113;SDS011;4099;52.684;9.918;2023-08-01T04:46:25;4.17;;;3.50;;
8113;SDS011;4099;52.684;9.918;2023-08-01T04:51:27;3.70;;;3.40;;
8113;SDS011;4099;52.684;9.918;2023-08-01T04:56:30;3.23;;;2.70;;
8113;SDS011;4099;52.684;9.918;2023-08-01T05:01:32;4.17;;;3.40;;
8113;SDS011;4099;52.684;9.918;2023-08-01T05:06:34;4.27;;;3.30;;
8113;SDS011;4099;52.684;9.918;2023-08-01T05:11:38;7.20;;;3.30;;
8113;SDS011;4099;52.684;9.918;2023-08-01T05:16:40;3.57;;;3.27;;
8113;SDS011;4099;52.684;9.918;2023-08-01T05:21:42;3.20;;;2.73;;
8113;SDS011;4099;52.684;9.918;2023-08-01T05:26:46;3.97;;;3.20;;
8113;SDS011;4099;52.684;9.918;2023-08-01T05:31:49;4.50;;;3.30;;
8113;SDS011;4099;52.684;9.918;2023-08-01T05:36:51;2.97;;;2.73;;
8113;SDS011;4099;52.684;9.918;2023-08-01T05:41:55;4.23;;;2.97;;
8113;SDS011;4099;52.684;9.918;2023-08-01T05:46:57;3.50;;;2.93;;
8113;SDS011;4099;52.684;9.918;2023-08-01T05:51:59;2.70;;;2.50;;
8113;SDS011;4099;52.684;9.918;2023-08-01T05:57:03;2.40;;;2.20;;
8113;SDS011;4099;52.684;9.918;2023-08-01T06:02:06;3.40;;;3.00;;
8113;SDS011;4099;52.684;9.918;2023-08-01T06:07:08;3.73;;;2.57;;
8113;SDS011;4099;52.684;9.918;2023-08-01T06:12:12;3.70;;;3.00;;
8113;SDS011;4099;52.684;9.918;2023-08-01T06:17:14;4.83;;;3.57;;
8113;SDS011;4099;52.684;9.918;2023-08-01T06:22:15;4.37;;;3.93;;
8113;SDS011;4099;52.684;9.918;2023-08-01T06:27:19;4.47;;;4.07;;
8113;SDS011;4099;52.684;9.918;2023-08-01T06:32:20;6.17;;;4.73;;
8113;SDS011;4099;52.684;9.918;2023-08-01T06:37:23;5.20;;;4.70;;
8113;SDS011;4099;52.684;9.918;2023-08-01T06:42:26;6.93;;;5.00;;
8113;SDS011;4099;52.684;9.918;2023-08-01T06:47:29;7.13;;;4.57;;
8113;SDS011;4099;52.684;9.918;2023-08-01T06:52:31;5.17;;;4.60;;
8113;SDS011;4099;52.684;9.918;2023-08-01T06:57:34;5.37;;;4.77;;
8113;SDS011;4099;52.684;9.918;2023-08-01T07:02:37;5.60;;;5.10;;
8113;SDS011;4099;52.684;9.918;2023-08-01T07:07:39;7.80;;;5.43;;
8113;SDS011;4099;52.684;9.918;2023-08-01T07:12:42;7.20;;;5.77;;
8113;SDS011;4099;52.684;9.918;2023-08-01T07:17:44;5.77;;;5.23;;
8113;SDS011;4099;52.684;9.918;2023-08-01T07:22:45;7.47;;;5.90;;
8113;SDS011;4099;52.684;9.918;2023-08-01T07:27:49;6.93;;;6.10;;
8113;SDS011;4099;52.684;9.918;2023-08-01T07:32:51;6.50;;;5.90;;
8113;SDS011;4099;52.684;9.918;2023-08-01T07:37:53;7.47;;;6.20;;
8113;SDS011;4099;52.684;9.918;2023-08-01T07:42:56;7.47;;;6.77;;
8113;SDS011;4099;52.684;9.918;2023-08-01T07:48:00;8.10;;;6.57;;
8113;SDS011;4099;52.684;9.918;2023-08-01T07:53:02;7.07;;;6.23;;
8113;SDS011;4099;52.684;9.918;2023-08-01T07:58:05;7.47;;;6.23;;
8113;SDS011;4099;52.684;9.918;2023-08-01T08:03:07;9.47;;;6.60;;
8113;SDS011;4099;52.684;9.918;2023-08-01T08:08:09;7.37;;;6.00;;
8113;SDS011;4099;52.684;9.918;2023-08-01T08:13:13;7.87;;;6.33;;
8113;SDS011;4099;52.684;9.918;2023-08-01T08:18:15;8.40;;;6.70;;
8113;SDS011;4099;52.684;9.918;2023-08-01T08:23:18;8.47;;;5.77;;
8113;SDS011;4099;52.684;9.918;2023-08-01T08:28:28;8.57;;;5.67;;
8113;SDS011;4099;52.684;9.918;2023-08-01T08:33:31;9.03;;;6.17;;
8113;SDS011;4099;52.684;9.918;2023-08-01T08:38:33;7.27;;;6.23;;
8113;SDS011;4099;52.684;9.918;2023-08-01T08:43:37;8.33;;;6.67;;
8113;SDS011;4099;52.684;9.918;2023-08-01T08:48:39;8.60;;;5.33;;
8113;SDS011;4099;52.684;9.918;2023-08-01T08:53:42;5.83;;;4.30;;
8113;SDS011;4099;52.684;9.918;2023-08-01T08:58:48;4.77;;;3.60;;
8113;SDS011;4099;52.684;9.918;2023-08-01T09:03:55;4.93;;;3.40;;
8113;SDS011;4099;52.684;9.918;2023-08-01T09:09:00;4.27;;;3.37;;
8113;SDS011;4099;52.684;9.918;2023-08-01T09:14:06;3.73;;;3.27;;
8113;SDS011;4099;52.684;9.918;2023-08-01T09:19:10;5.20;;;3.33;;
8113;SDS011;4099;52.684;9.918;2023-08-01T09:24:14;5.13;;;3.30;;
8113;SDS011;4099;52.684;9.918;2023-08-01T09:29:19;4.37;;;3.40;;
8113;SDS011;4099;52.684;9.918;2023-08-01T09:34:22;4.83;;;3.33;;
8113;SDS011;4099;52.684;9.918;2023-08-01T09:39:25;6.37;;;3.43;;
8113;SDS011;4099;52.684;9.918;2023-08-01T09:44:29;4.07;;;3.23;;
8113;SDS011;4099;52.684;9.918;2023-08-01T09:49:31;4.77;;;3.37;;
8113;SDS011;4099;52.684;9.918;2023-08-01T09:54:34;3.97;;;3.10;;
8113;SDS011;4099;52.684;9.918;2023-08-01T09:59:38;4.17;;;3.03;;
8113;SDS011;4099;52.684;9.918;2023-08-01T10:04:41;5.23;;;2.60;;
8113;SDS011;4099;52.684;9.918;2023-08-01T10:09:45;5.17;;;2.90;;
8113;SDS011;4099;52.684;9.918;2023-08-01T10:14:50;4.90;;;2.43;;
8113;SDS011;4099;52.684;9.918;2023-08-01T10:19:53;4.23;;;2.47;;
8113;SDS011;4099;52.684;9.918;2023-08-01T10:24:58;2.50;;;2.30;;
8113;SDS011;4099;52.684;9.918;2023-08-01T10:30:04;3.33;;;2.53;;
8113;SDS011;4099;52.684;9.918;2023-08-01T10:35:08;3.33;;;2.47;;
8113;SDS011;4099;52.684;9.918;2023-08-01T10:40:10;3.60;;;2.37;;
8113;SDS011;4099;52.684;9.918;2023-08-01T10:45:21;5.40;;;2.10;;
8113;SDS011;4099;52.684;9.918;2023-08-01T10:50:24;2.87;;;2.17;;
8113;SDS011;4099;52.684;9.918;2023-08-01T10:55:26;2.53;;;1.90;;
8113;SDS011;4099;52.684;9.918;2023-08-01T11:00:30;2.67;;;2.20;;
8113;SDS011;4099;52.684;9.918;2023-08-01T11:05:32;2.50;;;2.07;;
8113;SDS011;4099;52.684;9.918;2023-08-01T11:10:34;1.77;;;1.67;;
8113;SDS011;4099;52.684;9.918;2023-08-01T11:15:38;1.60;;;1.50;;
8113;SDS011;4099;52.684;9.918;2023-08-01T11:20:40;1.63;;;1.50;;
8113;SDS011;4099;52.684;9.918;2023-08-01T11:25:42;1.80;;;1.50;;
8113;SDS011;4099;52.684;9.918;2023-08-01T11:30:50;3.60;;;1.73;;
8113;SDS011;4099;52.684;9.918;2023-08-01T11:35:52;1.77;;;1.50;;
8113;SDS011;4099;52.684;9.918;2023-08-01T11:40:57;2.07;;;1.37;;
8113;SDS011;4099;52.684;9.918;2023-08-01T11:46:02;2.33;;;1.40;;
8113;SDS011;4099;52.684;9.918;2023-08-01T11:51:04;2.30;;;1.57;;
8113;SDS011;4099;52.684;9.918;2023-08-01T11:56:07;1.50;;;1.20;;
8113;SDS011;4099;52.684;9.918;2023-08-01T12:01:10;1.50;;;1.40;;
8113;SDS011;4099;52.684;9.918;2023-08-01T12:06:13;2.47;;;1.53;;
8113;SDS011;4099;52.684;9.918;2023-08-01T12:11:17;2.20;;;1.60;;
8113;SDS011;4099;52.684;9.918;2023-08-01T12:16:22;2.43;;;1.80;;
8113;SDS011;4099;52.684;9.918;2023-08-01T12:21:24;3.23;;;1.80;;
8113;SDS011;4099;52.684;9.918;2023-08-01T12:26:26;2.10;;;1.90;;
8113;SDS011;4099;52.684;9.918;2023-08-01T12:31:30;4.57;;;2.73;;
8113;SDS011;4099;52.684;9.918;2023-08-01T12:36:35;2.07;;;1.87;;
8113;SDS011;4099;52.684;9.918;2023-08-01T12:41:37;3.43;;;2.17;;
8113;SDS011;4099;52.684;9.918;2023-08-01T12:46:40;3.13;;;2.30;;
8113;SDS011;4099;52.684;9.918;2023-08-01T12:51:42;2.10;;;1.30;;
8113;SDS011;4099;52.684;9.918;2023-08-01T12:56:44;1.50;;;1.40;;
8113;SDS011;4099;52.684;9.918;2023-08-01T13:01:48;1.73;;;1.63;;
8113;SDS011;4099;52.684;9.918;2023-08-01T13:06:50;2.97;;;1.80;;
8113;SDS011;4099;52.684;9.918;2023-08-01T13:11:53;2.43;;;1.83;;
8113;SDS011;4099;52.684;9.918;2023-08-01T13:16:58;3.50;;;2.40;;
8113;SDS011;4099;52.684;9.918;2023-08-01T13:22:00;3.00;;;2.60;;
8113;SDS011;4099;52.684;9.918;2023-08-01T13:27:04;2.77;;;2.40;;
8113;SDS011;4099;52.684;9.918;2023-08-01T13:32:10;3.07;;;2.50;;
8113;SDS011;4099;52.684;9.918;2023-08-01T13:37:12;2.67;;;2.10;;
8113;SDS011;4099;52.684;9.918;2023-08-01T13:42:14;3.13;;;2.10;;
8113;SDS011;4099;52.684;9.918;2023-08-01T13:47:18;3.20;;;1.90;;
8113;SDS011;4099;52.684;9.918;2023-08-01T13:52:19;2.27;;;2.00;;
8113;SDS011;4099;52.684;9.918;2023-08-01T13:57:21;4.07;;;2.47;;
8113;SDS011;4099;52.684;9.918;2023-08-01T14:02:26;2.73;;;1.67;;
8113;SDS011;4099;52.684;9.918;2023-08-01T14:07:31;2.70;;;1.87;;
8113;SDS011;4099;52.684;9.918;2023-08-01T14:12:36;3.53;;;1.53;;
8113;SDS011;4099;52.684;9.918;2023-08-01T14:17:40;2.80;;;1.73;;
8113;SDS011;4099;52.684;9.918;2023-08-01T14:22:43;2.63;;;1.60;;
8113;SDS011;4099;52.684;9.918;2023-08-01T14:27:45;1.23;;;1.10;;
8113;SDS011;4099;52.684;9.918;2023-08-01T14:32:49;2.03;;;1.40;;
8113;SDS011;4099;52.684;9.918;2023-08-01T14:37:52;1.37;;;1.30;;
8113;SDS011;4099;52.684;9.918;2023-08-01T14:42:56;2.30;;;1.43;;
8113;SDS011;4099;52.684;9.918;2023-08-01T14:48:00;3.03;;;1.70;;
8113;SDS011;4099;52.684;9.918;2023-08-01T14:53:02;2.43;;;1.50;;
8113;SDS011;4099;52.684;9.918;2023-08-01T14:58:03;1.60;;;1.50;;
8113;SDS011;4099;52.684;9.918;2023-08-01T15:03:08;2.23;;;1.30;;
8113;SDS011;4099;52.684;9.918;2023-08-01T15:08:11;2.50;;;1.20;;
8113;SDS011;4099;52.684;9.918;2023-08-01T15:13:13;2.03;;;1.53;;
8113;SDS011;4099;52.684;9.918;2023-08-01T15:18:17;1.97;;;1.40;;
8113;SDS011;4099;52.684;9.918;2023-08-01T15:23:19;1.63;;;1.50;;
8113;SDS011;4099;52.684;9.918;2023-08-01T15:28:21;2.40;;;1.17;;
8113;SDS011;4099;52.684;9.918;2023-08-01T15:33:25;1.83;;;1.47;;
8113;SDS011;4099;52.684;9.918;2023-08-01T15:38:27;1.40;;;1.30;;
8113;SDS011;4099;52.684;9.918;2023-08-01T15:43:31;2.77;;;1.73;;
8113;SDS011;4099;52.684;9.918;2023-08-01T15:48:35;2.40;;;1.43;;
8113;SDS011;4099;52.684;9.918;2023-08-01T15:53:38;2.40;;;1.20;;
8113;SDS011;4099;52.684;9.918;2023-08-01T15:58:40;3.90;;;1.47;;
8113;SDS011;4099;52.684;9.918;2023-08-01T16:03:44;1.40;;;1.30;;
8113;SDS011;4099;52.684;9.918;2023-08-01T16:08:46;2.77;;;1.40;;
8113;SDS011;4099;52.684;9.918;2023-08-01T16:13:48;3.30;;;1.60;;
8113;SDS011;4099;52.684;9.918;2023-08-01T16:18:52;2.47;;;1.57;;
8113;SDS011;4099;52.684;9.918;2023-08-01T16:23:54;3.33;;;1.77;;
8113;SDS011;4099;52.684;9.918;2023-08-01T16:29:00;2.63;;;1.40;;
8113;SDS011;4099;52.684;9.918;2023-08-01T16:34:04;2.20;;;1.70;;
8113;SDS011;4099;52.684;9.918;2023-08-01T16:39:07;2.03;;;1.20;;
8113;SDS011;4099;52.684;9.918;2023-08-01T16:44:09;2.60;;;1.40;;
8113;SDS011;4099;52.684;9.918;2023-08-01T16:49:12;3.07;;;1.53;;
8113;SDS011;4099;52.684;9.918;2023-08-01T16:54:14;2.97;;;1.40;;
8113;SDS011;4099;52.684;9.918;2023-08-01T16:59:16;4.73;;;1.60;;
8113;SDS011;4099;52.684;9.918;2023-08-01T17:04:21;2.50;;;1.77;;
8113;SDS011;4099;52.684;9.918;2023-08-01T17:09:23;1.53;;;1.43;;
8113;SDS011;4099;52.684;9.918;2023-08-01T17:14:27;2.03;;;1.50;;
8113;SDS011;4099;52.684;9.918;2023-08-01T17:19:31;2.47;;;1.67;;
8113;SDS011;4099;52.684;9.918;2023-08-01T17:24:33;2.03;;;1.50;;
8113;SDS011;4099;52.684;9.918;2023-08-01T17:29:35;2.77;;;1.33;;
8113;SDS011;4099;52.684;9.918;2023-08-01T17:34:39;2.90;;;1.40;;
8113;SDS011;4099;52.684;9.918;2023-08-01T17:39:41;2.67;;;1.20;;
8113;SDS011;4099;52.684;9.918;2023-08-01T17:44:42;3.83;;;1.57;;
8113;SDS011;4099;52.684;9.918;2023-08-01T17:49:45;3.00;;;1.80;;
8113;SDS011;4099;52.684;9.918;2023-08-01T17:54:47;2.67;;;1.43;;
8113;SDS011;4099;52.684;9.918;2023-08-01T17:59:50;1.57;;;1.30;;
8113;SDS011;4099;52.684;9.918;2023-08-01T18:04:53;3.07;;;1.50;;
8113;SDS011;4099;52.684;9.918;2023-08-01T18:09:58;3.60;;;1.37;;
8113;SDS011;4099;52.684;9.918;2023-08-01T18:15:01;3.97;;;1.63;;
8113;SDS011;4099;52.684;9.918;2023-08-01T18:20:05;2.60;;;1.70;;
8113;SDS011;4099;52.684;9.918;2023-08-01T18:25:10;2.90;;;1.70;;
8113;SDS011;4099;52.684;9.918;2023-08-01T18:30:13;2.40;;;1.50;;
8113;SDS011;4099;52.684;9.918;2023-08-01T18:35:17;3.67;;;1.60;;
8113;SDS011;4099;52.684;9.918;2023-08-01T18:40:20;3.00;;;1.60;;
8113;SDS011;4099;52.684;9.918;2023-08-01T18:45:22;3.53;;;1.73;;
8113;SDS011;4099;52.684;9.918;2023-08-01T18:50:26;3.43;;;1.77;;
8113;SDS011;4099;52.684;9.918;2023-08-01T18:55:32;1.70;;;1.60;;
8113;SDS011;4099;52.684;9.918;2023-08-01T19:00:35;4.20;;;2.00;;
8113;SDS011;4099;52.684;9.918;2023-08-01T19:05:38;3.10;;;2.30;;
8113;SDS011;4099;52.684;9.918;2023-08-01T19:10:41;2.43;;;1.73;;
8113;SDS011;4099;52.684;9.918;2023-08-01T19:15:42;3.97;;;1.73;;
8113;SDS011;4099;52.684;9.918;2023-08-01T19:20:46;5.27;;;1.80;;
8113;SDS011;4099;52.684;9.918;2023-08-01T19:25:49;3.00;;;1.90;;
8113;SDS011;4099;52.684;9.918;2023-08-01T19:30:51;3.07;;;1.60;;
8113;SDS011;4099;52.684;9.918;2023-08-01T19:35:55;1.60;;;1.50;;
8113;SDS011;4099;52.684;9.918;2023-08-01T19:40:57;1.97;;;1.50;;
8113;SDS011;4099;52.684;9.918;2023-08-01T19:46:00;2.07;;;1.20;;
8113;SDS011;4099;52.684;9.918;2023-08-01T19:51:14;1.37;;;1.20;;
8113;SDS011;4099;52.684;9.918;2023-08-01T19:56:16;1.70;;;1.20;;
8113;SDS011;4099;52.684;9.918;2023-08-01T20:01:18;1.77;;;1.20;;
8113;SDS011;4099;52.684;9.918;2023-08-01T20:06:22;1.73;;;1.37;;
8113;SDS011;4099;52.684;9.918;2023-08-01T20:11:25;2.93;;;1.50;;
8113;SDS011;4099;52.684;9.918;2023-08-01T20:16:31;1.70;;;1.40;;
8113;SDS011;4099;52.684;9.918;2023-08-01T20:21:38;2.20;;;1.27;;
8113;SDS011;4099;52.684;9.918;2023-08-01T20:26:40;2.27;;;1.50;;
8113;SDS011;4099;52.684;9.918;2023-08-01T20:31:44;6.40;;;2.10;;
8113;SDS011;4099;52.684;9.918;2023-08-01T20:36:48;3.67;;;1.60;;
8113;SDS011;4099;52.684;9.918;2023-08-01T20:41:50;4.17;;;1.70;;
8113;SDS011;4099;52.684;9.918;2023-08-01T20:46:53;1.97;;;1.30;;
8113;SDS011;4099;52.684;9.918;2023-08-01T20:51:57;2.87;;;1.60;;
8113;SDS011;4099;52.684;9.918;2023-08-01T20:57:02;2.90;;;1.77;;
8113;SDS011;4099;52.684;9.918;2023-08-01T21:02:05;3.97;;;1.93;;
8113;SDS011;4099;52.684;9.918;2023-08-01T21:07:10;2.77;;;1.90;;
8113;SDS011;4099;52.684;9.918;2023-08-01T21:12:13;3.77;;;2.00;;
8113;SDS011;4099;52.684;9.918;2023-08-01T21:17:15;2.10;;;1.67;;
8113;SDS011;4099;52.684;9.918;2023-08-01T21:22:19;4.10;;;1.80;;
8113;SDS011;4099;52.684;9.918;2023-08-01T21:27:21;2.93;;;1.47;;
8113;SDS011;4099;52.684;9.918;2023-08-01T21:32:23;3.27;;;1.80;;
8113;SDS011;4099;52.684;9.918;2023-08-01T21:37:27;2.70;;;1.40;;
8113;SDS011;4099;52.684;9.918;2023-08-01T21:42:29;2.73;;;1.63;;
8113;SDS011;4099;52.684;9.918;2023-08-01T21:47:31;2.80;;;1.57;;
8113;SDS011;4099;52.684;9.918;2023-08-01T21:52:36;3.63;;;1.73;;
8113;SDS011;4099;52.684;9.918;2023-08-01T21:57:38;2.07;;;1.43;;
8113;SDS011;4099;52.684;9.918;2023-08-01T22:02:40;2.17;;;1.57;;
8113;SDS011;4099;52.684;9.918;2023-08-01T22:07:44;4.40;;;1.77;;
8113;SDS011;4099;52.684;9.918;2023-08-01T22:12:46;3.23;;;1.80;;
8113;SDS011;4099;52.684;9.918;2023-08-01T22:17:48;3.17;;;1.87;;
8113;SDS011;4099;52.684;9.918;2023-08-01T22:22:51;2.20;;;1.97;;
8113;SDS011;4099;52.684;9.918;2023-08-01T22:27:54;3.23;;;1.87;;
8113;SDS011;4099;52.684;9.918;2023-08-01T22:32:56;1.77;;;1.47;;
8113;SDS011;4099;52.684;9.918;2023-08-01T22:38:00;2.43;;;1.70;;
8113;SDS011;4099;52.684;9.918;2023-08-01T22:43:02;1.93;;;1.70;;
8113;SDS011;4099;52.684;9.918;2023-08-01T22:48:05;3.87;;;1.83;;
8113;SDS011;4099;52.684;9.918;2023-08-01T22:53:08;3.90;;;1.87;;
8113;SDS011;4099;52.684;9.918;2023-08-01T22:58:10;2.83;;;1.57;;
8113;SDS011;4099;52.684;9.918;2023-08-01T23:03:13;3.60;;;1.67;;
8113;SDS011;4099;52.684;9.918;2023-08-01T23:08:16;3.10;;;1.80;;
8113;SDS011;4099;52.684;9.918;2023-08-01T23:13:18;2.43;;;1.70;;
8113;SDS011;4099;52.684;9.918;2023-08-01T23:18:20;4.63;;;2.17;;
8113;SDS011;4099;52.684;9.918;2023-08-01T23:23:24;4.23;;;2.20;;
8113;SDS011;4099;52.684;9.918;2023-08-01T23:28:26;3.60;;;1.90;;
8113;SDS011;4099;52.684;9.918;2023-08-01T23:33:28;3.63;;;1.83;;
8113;SDS011;4099;52.684;9.918;2023-08-01T23:38:32;3.70;;;2.00;;
8113;SDS011;4099;52.684;9.918;2023-08-01T23:43:34;3.20;;;1.90;;
8113;SDS011;4099;52.684;9.918;2023-08-01T23:48:36;3.87;;;1.93;;
8113;SDS011;4099;52.684;9.918;2023-08-01T23:53:42;4.37;;;2.00;;
8113;SDS011;4099;52.684;9.918;2023-08-01T23:58:44;3.83;;;1.73;;
